Flight Track Log - Related Links

Times and Time Zones

All times are in EDT time to prevent confusion due to time zone crossing. See the N830QS flight status page for this flight to view local times or setup timezone preferences in your user account.

Time Position Orientation Groundspeed Altitude Reporting Facility
EDT Latitude Longitude Course Direction KTS MPH feet Rate Location/Type
Fri 10:09:01 PM 39.4397 -120.1686 169° South 226 260 11,900  Level Oakland Center
Fri 10:10:02 PM 39.4633 -120.2450 292° West 253 291 14,500 2,488 Climbing Oakland Center
Fri 10:11:04 PM 39.4000 -120.2797 203° Southwest 280 322 17,000 2,146 Climbing Oakland Center
Fri 10:12:05 PM 39.3206 -120.2628 171° South 287 330 18,900 1,967 Climbing Oakland Center
Fri 10:13:00 PM 39.3923 -119.6500 180° South  Level FlightAware Approximate
Fri 10:13:06 PM 39.2339 -120.2444 171° South 306 352 21,000  Level Oakland Center
Fri 10:14:00 PM 39.3026 -119.6285 169° South  Level Estimated
Fri 10:14:07 PM 39.1447 -120.2258 171° South 320 368 23,000  Level Oakland Center
Fri 10:15:08 PM 39.0333 -120.2042 171° South 333 383 25,100 1,623 Climbing Oakland Center
Fri 10:16:09 PM 38.9342 -120.1836 171° South 354 407 26,300 1,082 Climbing Oakland Center
Fri 10:17:10 PM 38.8292 -120.1625 171° South 376 433 27,300 976 Climbing Oakland Center
Fri 10:18:12 PM 38.7203 -120.1400 171° South 391 450 28,300 829 Climbing Oakland Center
Fri 10:19:13 PM 38.6089 -120.1181 171° South 400 460 29,000 344 Climbing Oakland Center
Fri 10:20:14 PM 38.4933 -120.0956 171° South 411 473 29,000  Level Oakland Center
Fri 10:21:15 PM 38.3747 -120.0725 171° South 425 489 29,000  Level Oakland Center
Fri 10:22:16 PM 38.2594 -120.0494 171° South 420 483 29,000  Level Oakland Center
Fri 10:23:17 PM 38.1453 -120.0269 171° South 415 478 29,000  Level Oakland Center
Fri 10:24:18 PM 38.0319 -120.0056 172° South 412 474 29,000  Level Oakland Center
Fri 10:25:20 PM 37.9200 -119.9833 171° South 409 471 29,000  Level Oakland Center
Fri 10:26:21 PM 37.8069 -119.9597 171° South 411 473 29,000  Level Oakland Center
Fri 10:27:22 PM 37.6936 -119.9386 172° South 410 472 29,000  Level Oakland Center
Fri 10:28:23 PM 37.5800 -119.9164 171° South 413 475 29,000  Level Oakland Center
Fri 10:29:24 PM 37.4450 -119.8900 171° South 408 470 29,000  Level Oakland Center
Fri 10:30:25 PM 37.3325 -119.8686 171° South 409 471 29,000  Level Oakland Center
Fri 10:31:26 PM 37.2194 -119.8461 171° South 409 471 29,000  Level Oakland Center
Fri 10:32:27 PM 37.1061 -119.8250 172° South 411 473 29,000  Level Oakland Center
Fri 10:33:28 PM 37.0069 -119.8047 171° South 409 471 29,000  Level Oakland Center
Fri 10:34:29 PM 36.8728 -119.7803 172° South 406 467 29,000  Level Oakland Center
Fri 10:36:26 PM 36.6722 -119.7436 172° South 405 466 29,000  Level Los Angeles Center
Fri 10:37:32 PM 36.5378 -119.7183 171° South 407 468 29,000  Level Oakland Center
Fri 10:38:34 PM 36.4272 -119.6964 171° South 403 464 29,000  Level Oakland Center
Fri 10:39:35 PM 36.3161 -119.6772 172° South 402 463 29,000  Level Oakland Center
Fri 10:40:36 PM 36.2050 -119.6567 172° South 402 463 29,000  Level Oakland Center
Fri 10:41:37 PM 36.0933 -119.6350 171° South 405 466 29,000  Level Oakland Center
Fri 10:42:38 PM 35.9817 -119.6150 172° South 404 465 29,000  Level Oakland Center
Fri 10:43:39 PM 35.8675 -119.6200 182° South 408 470 29,000  Level Oakland Center
Fri 10:44:41 PM 35.7536 -119.6233 181° South 408 470 29,000  Level Oakland Center
Fri 10:45:42 PM 35.6375 -119.6261 181° South 412 474 29,000  Level Oakland Center
Fri 10:46:43 PM 35.5228 -119.6303 182° South 411 473 29,000  Level Oakland Center
Fri 10:47:44 PM 35.3850 -119.6361 182° South 411 473 29,000 -574 Level Oakland Center
Fri 10:48:59 PM 35.2461 -119.6214 175° South 427 491 27,700 -1,314 Descending Los Angeles Center
Fri 10:50:01 PM 35.1439 -119.5453 149° Southeast 430 495 26,000 -1,887 Descending Los Angeles Center
Fri 10:51:03 PM 35.0503 -119.4642 145° Southeast 416 479 23,800 -2,098 Descending Los Angeles Center
Fri 10:52:04 PM 34.9603 -119.3883 145° Southeast 397 457 21,700 -2,000 Descending Los Angeles Center
Fri 10:53:06 PM 34.8739 -119.3150 145° Southeast 381 438 19,700 -1,984 Descending Los Angeles Center
Fri 10:54:08 PM 34.7886 -119.2425 145° Southeast 374 430 17,600 -2,129 Descending Los Angeles Center
Fri 10:55:10 PM 34.6881 -119.1581 145° Southeast 366 421 15,300 -1,854 Descending Los Angeles Center
Fri 10:56:11 PM 34.6078 -119.0944 147° Southeast 369 425 13,800 -1,510 Descending Los Angeles Center
Fri 10:57:37 PM 34.5211 -119.0239 146° Southeast 300 345 11,600 -1,135 Descending Los Angeles Center
Fri 10:58:39 PM 34.4550 -118.9644 143° Southeast 293 337 11,000 -1,016 Descending Los Angeles Center
Fri 10:59:41 PM 34.3758 -118.8933 143° Southeast 295 339 9,500 -1,632 Descending Los Angeles Center
Fri 11:00:44 PM 34.3650 -118.7794 97° East 289 333 7,600 -1,680 Descending Los Angeles Center
Fri 11:01:46 PM 34.3569 -118.6886 96° East 275 316 6,000 -1,268 Descending Los Angeles Center
Fri 11:02:47 PM 34.3422 -118.6050 102° East 260 299 5,000 -1,024 Descending Los Angeles Center
Fri 11:03:49 PM 34.3258 -118.5411 107° East 214 246 3,900 -1,210 Descending Los Angeles Center
Fri 11:04:51 PM 34.2903 -118.5006 137° Southeast 187 215 2,500 -1,073 Descending Los Angeles Center
Fri 11:05:52 PM 34.2519 -118.4947 173° South 157 181 1,700 -634 Descending Los Angeles Center
Fri 11:06:54 PM 34.2131 -118.4911 176° South 142 163 1,200 -484 Descending Los Angeles Center
Fri 11:08:00 PM 34.2098 -118.4900 180° South  Level Estimated
Fri 11:15:00 PM 34.2098 -118.4900 180° South  Level Estimated

Login

Don't have an account? Register now (free) for customized features, flight alerts, and more!